Private Wetterstation Sandau
Wetterdaten: Donnerstag, 10.05.2012
Datum Zeit Temp. A. Feuchte A. Luftdruck Regen Wind Richtung Richtung Taupunkt Windchill
10.05.2012 00:01 16,9 C 78 % 1017,9 hPa 0,0 l/m 0,0 km/h (0 Bft) S-SO 157 13,0 C 16,9 C
10.05.2012 00:06 16,9 C 78 % 1018,0 hPa 0,0 l/m 0,0 km/h (0 Bft) S-SO 157 13,0 C 16,9 C
10.05.2012 00:11 16,8 C 78 % 1017,8 hPa 0,0 l/m 0,0 km/h (0 Bft) S 180 12,9 C 16,8 C
10.05.2012 00:16 16,6 C 78 % 1017,8 hPa 0,0 l/m 2,9 km/h (1 Bft) SO 135 12,7 C 16,6 C
10.05.2012 00:21 16,6 C 79 % 1017,7 hPa 0,0 l/m 0,0 km/h (0 Bft) S-SO 157 12,9 C 16,6 C
10.05.2012 00:26 16,5 C 79 % 1017,8 hPa 0,0 l/m 1,8 km/h (1 Bft) SO 135 12,8 C 16,5 C
10.05.2012 00:31 16,4 C 79 % 1017,7 hPa 0,0 l/m 4,0 km/h (1 Bft) S-SO 157 12,7 C 16,4 C
10.05.2012 00:36 16,3 C 79 % 1017,8 hPa 0,0 l/m 4,0 km/h (1 Bft) S 180 12,6 C 16,3 C
10.05.2012 00:41 16,2 C 80 % 1017,9 hPa 0,0 l/m 4,0 km/h (1 Bft) S-SO 157 12,7 C 16,2 C
10.05.2012 00:46 16,1 C 80 % 1017,9 hPa 0,0 l/m 2,2 km/h (1 Bft) S-SO 157 12,6 C 16,1 C
10.05.2012 00:51 16,1 C 80 % 1018,0 hPa 0,0 l/m 4,3 km/h (1 Bft) S-SO 157 12,6 C 16,1 C
10.05.2012 00:56 16,1 C 80 % 1018,0 hPa 0,0 l/m 6,5 km/h (2 Bft) S-SW 202 12,6 C 16,1 C
10.05.2012 01:01 15,9 C 80 % 1018,0 hPa 0,0 l/m 1,8 km/h (1 Bft) S 180 12,5 C 15,9 C
10.05.2012 01:06 15,9 C 81 % 1017,9 hPa 0,0 l/m 4,3 km/h (1 Bft) S 180 12,6 C 15,9 C
10.05.2012 01:11 15,9 C 81 % 1018,0 hPa 0,0 l/m 2,5 km/h (1 Bft) S 180 12,6 C 15,9 C
10.05.2012 01:16 15,9 C 80 % 1018,1 hPa 0,0 l/m 3,2 km/h (1 Bft) S 180 12,5 C 15,9 C
10.05.2012 01:21 15,8 C 80 % 1018,2 hPa 0,0 l/m 2,5 km/h (1 Bft) S 180 12,4 C 15,8 C
10.05.2012 01:26 15,8 C 80 % 1018,1 hPa 0,0 l/m 1,4 km/h (1 Bft) S-SO 157 12,4 C 15,8 C
10.05.2012 01:31 15,8 C 80 % 1018,1 hPa 0,0 l/m 2,5 km/h (1 Bft) SO 135 12,4 C 15,8 C
10.05.2012 01:36 15,7 C 80 % 1018,2 hPa 0,0 l/m 0,0 km/h (0 Bft) S 180 12,3 C 15,7 C
10.05.2012 01:41 15,6 C 81 % 1018,2 hPa 0,0 l/m 1,1 km/h (1 Bft) S 180 12,3 C 15,6 C
10.05.2012 01:46 15,6 C 81 % 1018,3 hPa 0,0 l/m 1,4 km/h (1 Bft) S-SO 157 12,3 C 15,6 C
10.05.2012 01:51 15,5 C 81 % 1018,3 hPa 0,0 l/m 4,0 km/h (1 Bft) S 180 12,3 C 15,5 C
10.05.2012 01:56 15,5 C 81 % 1018,2 hPa 0,0 l/m 2,9 km/h (1 Bft) S-SO 157 12,3 C 15,5 C
10.05.2012 02:01 15,5 C 82 % 1018,3 hPa 0,0 l/m 1,4 km/h (1 Bft) S-SO 157 12,4 C 15,5 C
10.05.2012 02:06 15,4 C 82 % 1018,3 hPa 0,0 l/m 2,5 km/h (1 Bft) SO 135 12,3 C 15,4 C
10.05.2012 02:11 15,5 C 82 % 1018,3 hPa 0,0 l/m 1,4 km/h (1 Bft) S-SO 157 12,4 C 15,5 C
10.05.2012 02:16 15,5 C 82 % 1018,3 hPa 0,0 l/m 1,4 km/h (1 Bft) S 180 12,4 C 15,5 C
10.05.2012 02:21 15,4 C 82 % 1018,3 hPa 0,0 l/m 3,2 km/h (1 Bft) S 180 12,3 C 15,4 C
10.05.2012 02:26 15,4 C 82 % 1018,3 hPa 0,0 l/m 1,4 km/h (1 Bft) S 180 12,3 C 15,4 C
10.05.2012 02:31 15,4 C 82 % 1018,4 hPa 0,0 l/m 1,8 km/h (1 Bft) S-SO 157 12,3 C 15,4 C
10.05.2012 02:36 15,3 C 82 % 1018,4 hPa 0,0 l/m 2,9 km/h (1 Bft) SW 225 12,2 C 15,3 C
10.05.2012 02:41 15,3 C 82 % 1018,5 hPa 0,0 l/m 3,2 km/h (1 Bft) S-SW 202 12,2 C 15,3 C
10.05.2012 02:46 15,3 C 82 % 1018,5 hPa 0,0 l/m 2,9 km/h (1 Bft) S-SW 202 12,2 C 15,3 C
10.05.2012 02:51 15,3 C 82 % 1018,6 hPa 0,0 l/m 5,0 km/h (1 Bft) S-SW 202 12,2 C 15,3 C
10.05.2012 02:56 15,2 C 82 % 1018,6 hPa 0,0 l/m 2,2 km/h (1 Bft) S-SO 157 12,1 C 15,2 C
10.05.2012 03:01 15,2 C 82 % 1018,6 hPa 0,0 l/m 2,9 km/h (1 Bft) S-SO 157 12,1 C 15,2 C
10.05.2012 03:06 15,0 C 82 % 1018,7 hPa 0,0 l/m 3,6 km/h (1 Bft) S-SW 202 12,0 C 15,0 C
10.05.2012 03:11 14,9 C 83 % 1018,8 hPa 0,0 l/m 3,2 km/h (1 Bft) S-SW 202 12,0 C 14,9 C
10.05.2012 03:16 15,0 C 83 % 1018,8 hPa 0,0 l/m 3,2 km/h (1 Bft) S 180 12,1 C 15,0 C
10.05.2012 03:21 14,9 C 83 % 1018,9 hPa 0,0 l/m 3,2 km/h (1 Bft) S 180 12,0 C 14,9 C
10.05.2012 03:26 14,9 C 83 % 1018,8 hPa 0,0 l/m 2,9 km/h (1 Bft) S 180 12,0 C 14,9 C
10.05.2012 03:31 14,9 C 83 % 1018,9 hPa 0,0 l/m 3,6 km/h (1 Bft) S-SW 202 12,0 C 14,9 C
10.05.2012 03:36 14,9 C 83 % 1018,9 hPa 0,0 l/m 6,8 km/h (2 Bft) SW 225 12,0 C 14,9 C
10.05.2012 03:41 14,9 C 83 % 1019,0 hPa 0,0 l/m 5,4 km/h (1 Bft) S-SO 157 12,0 C 14,9 C
10.05.2012 03:46 14,9 C 83 % 1018,9 hPa 0,0 l/m 3,6 km/h (1 Bft) S 180 12,0 C 14,9 C
10.05.2012 03:51 14,9 C 83 % 1018,9 hPa 0,0 l/m 2,5 km/h (1 Bft) S-SO 157 12,0 C 14,9 C
10.05.2012 03:56 14,8 C 83 % 1019,0 hPa 0,0 l/m 3,6 km/h (1 Bft) S 180 11,9 C 14,8 C
10.05.2012 04:01 14,8 C 83 % 1018,9 hPa 0,0 l/m 6,1 km/h (2 Bft) S 180 11,9 C 14,8 C
10.05.2012 04:06 14,7 C 83 % 1018,9 hPa 0,0 l/m 2,5 km/h (1 Bft) SO 135 11,8 C 14,7 C
10.05.2012 04:11 14,6 C 83 % 1019,0 hPa 0,0 l/m 3,6 km/h (1 Bft) S-SO 157 11,7 C 14,6 C
10.05.2012 04:16 14,6 C 83 % 1019,0 hPa 0,0 l/m 3,6 km/h (1 Bft) SO 135 11,7 C 14,6 C
10.05.2012 04:21 14,5 C 83 % 1018,8 hPa 0,0 l/m 5,8 km/h (2 Bft) S 180 11,6 C 14,5 C
10.05.2012 04:26 14,5 C 83 % 1018,8 hPa 0,0 l/m 2,9 km/h (1 Bft) S-SO 157 11,6 C 14,5 C
10.05.2012 04:31 14,4 C 83 % 1018,8 hPa 0,0 l/m 3,2 km/h (1 Bft) S 180 11,5 C 14,4 C
10.05.2012 04:36 14,4 C 84 % 1018,8 hPa 0,0 l/m 5,4 km/h (1 Bft) S 180 11,7 C 14,4 C
10.05.2012 04:41 14,3 C 84 % 1018,8 hPa 0,0 l/m 0,0 km/h (0 Bft) S-SW 202 11,6 C 14,3 C
10.05.2012 04:46 14,3 C 84 % 1018,7 hPa 0,0 l/m 5,0 km/h (1 Bft) S-SO 157 11,6 C 14,3 C
10.05.2012 04:51 14,2 C 84 % 1018,8 hPa 0,0 l/m 7,9 km/h (2 Bft) S 180 11,5 C 14,2 C
10.05.2012 04:56 14,2 C 84 % 1018,9 hPa 0,0 l/m 5,4 km/h (1 Bft) S-SW 202 11,5 C 14,2 C
10.05.2012 05:01 14,1 C 84 % 1019,0 hPa 0,0 l/m 6,5 km/h (2 Bft) S 180 11,4 C 14,1 C
10.05.2012 05:06 14,1 C 85 % 1019,0 hPa 0,0 l/m 5,0 km/h (1 Bft) S 180 11,6 C 14,1 C
10.05.2012 05:11 14,1 C 85 % 1019,0 hPa 0,0 l/m 3,6 km/h (1 Bft) S-SO 157 11,6 C 14,1 C
10.05.2012 05:16 13,9 C 85 % 1019,0 hPa 0,0 l/m 3,2 km/h (1 Bft) SO 135 11,4 C 13,9 C
10.05.2012 05:21 13,9 C 86 % 1019,0 hPa 0,0 l/m 7,2 km/h (2 Bft) S-SO 157 11,6 C 13,9 C
10.05.2012 05:26 13,9 C 86 % 1019,0 hPa 0,0 l/m 8,6 km/h (2 Bft) S 180 11,6 C 13,9 C
10.05.2012 05:31 13,9 C 86 % 1018,9 hPa 0,0 l/m 6,8 km/h (2 Bft) S 180 11,6 C 13,9 C
10.05.2012 05:36 13,9 C 86 % 1019,0 hPa 0,0 l/m 3,6 km/h (1 Bft) S-SO 157 11,6 C 13,9 C
10.05.2012 05:41 13,9 C 86 % 1019,1 hPa 0,0 l/m 2,2 km/h (1 Bft) SO 135 11,6 C 13,9 C
10.05.2012 05:46 13,8 C 85 % 1018,9 hPa 0,0 l/m 3,6 km/h (1 Bft) SO 135 11,3 C 13,8 C
10.05.2012 05:51 13,8 C 85 % 1018,8 hPa 0,0 l/m 3,2 km/h (1 Bft) S-SO 157 11,3 C 13,8 C
10.05.2012 05:56 13,8 C 85 % 1018,9 hPa 0,0 l/m 7,2 km/h (2 Bft) S 180 11,3 C 13,8 C
10.05.2012 06:01 13,8 C 85 % 1019,1 hPa 0,0 l/m 8,6 km/h (2 Bft) S-SO 157 11,3 C 13,8 C
10.05.2012 06:06 13,7 C 86 % 1019,0 hPa 0,0 l/m 5,8 km/h (2 Bft) SO 135 11,4 C 13,7 C
10.05.2012 06:11 13,8 C 86 % 1019,0 hPa 0,0 l/m 4,7 km/h (1 Bft) SW 225 11,5 C 13,8 C
10.05.2012 06:16 14,1 C 88 % 1018,9 hPa 0,0 l/m 5,4 km/h (1 Bft) S 180 12,1 C 14,1 C
10.05.2012 06:21 14,4 C 88 % 1019,1 hPa 0,0 l/m 2,5 km/h (1 Bft) S-SW 202 12,4 C 14,4 C
10.05.2012 06:26 14,9 C 88 % 1019,1 hPa 0,0 l/m 3,6 km/h (1 Bft) S-SO 157 12,9 C 14,9 C
10.05.2012 06:31 15,3 C 87 % 1019,1 hPa 0,0 l/m 4,7 km/h (1 Bft) S 180 13,1 C 15,3 C
10.05.2012 06:36 15,6 C 85 % 1019,1 hPa 0,0 l/m 7,9 km/h (2 Bft) S 180 13,1 C 15,6 C
10.05.2012 06:41 15,8 C 84 % 1019,2 hPa 0,0 l/m 2,9 km/h (1 Bft) S-SO 157 13,1 C 15,8 C
10.05.2012 06:46 15,6 C 83 % 1019,4 hPa 0,0 l/m 2,5 km/h (1 Bft) SO 135 12,7 C 15,6 C
10.05.2012 06:51 15,6 C 83 % 1019,6 hPa 0,0 l/m 0,0 km/h (0 Bft) S 180 12,7 C 15,6 C
10.05.2012 06:56 15,4 C 83 % 1019,6 hPa 0,0 l/m 5,8 km/h (2 Bft) SW 225 12,5 C 15,4 C
10.05.2012 07:01 15,3 C 83 % 1019,6 hPa 0,0 l/m 3,2 km/h (1 Bft) S-SW 202 12,4 C 15,3 C
10.05.2012 07:06 15,3 C 83 % 1019,7 hPa 0,0 l/m 9,0 km/h (2 Bft) S-SO 157 12,4 C 15,3 C
10.05.2012 07:11 15,2 C 84 % 1019,6 hPa 0,0 l/m 1,8 km/h (1 Bft) S 180 12,5 C 15,2 C
10.05.2012 07:16 15,2 C 84 % 1019,7 hPa 0,0 l/m 2,5 km/h (1 Bft) SO 135 12,5 C 15,2 C
10.05.2012 07:21 15,3 C 84 % 1019,6 hPa 0,0 l/m 2,2 km/h (1 Bft) S 180 12,6 C 15,3 C
10.05.2012 07:26 15,3 C 84 % 1019,7 hPa 0,0 l/m 2,5 km/h (1 Bft) SO 135 12,6 C 15,3 C
10.05.2012 07:31 15,3 C 84 % 1019,6 hPa 0,0 l/m 2,9 km/h (1 Bft) SO 135 12,6 C 15,3 C
10.05.2012 07:36 15,4 C 84 % 1019,6 hPa 0,0 l/m 3,6 km/h (1 Bft) SO 135 12,7 C 15,4 C
10.05.2012 07:41 15,6 C 84 % 1019,7 hPa 0,0 l/m 6,1 km/h (2 Bft) SW 225 12,9 C 15,6 C
10.05.2012 07:46 15,8 C 84 % 1019,7 hPa 0,0 l/m 7,2 km/h (2 Bft) SO 135 13,1 C 15,8 C
10.05.2012 07:51 15,9 C 84 % 1019,8 hPa 0,0 l/m 3,2 km/h (1 Bft) S-SO 157 13,2 C 15,9 C
10.05.2012 07:56 16,0 C 84 % 1019,8 hPa 0,0 l/m 9,7 km/h (2 Bft) S 180 13,3 C 16,0 C
10.05.2012 08:01 16,3 C 84 % 1020,0 hPa 0,0 l/m 4,0 km/h (1 Bft) S-SO 157 13,6 C 16,3 C
10.05.2012 08:06 16,3 C 83 % 1019,8 hPa 0,0 l/m 2,2 km/h (1 Bft) S 180 13,4 C 16,3 C
10.05.2012 08:11 16,4 C 83 % 1019,9 hPa 0,0 l/m 5,4 km/h (1 Bft) S 180 13,5 C 16,4 C
10.05.2012 08:16 16,6 C 83 % 1019,8 hPa 0,0 l/m 7,6 km/h (2 Bft) S 180 13,7 C 16,6 C
10.05.2012 08:21 16,9 C 83 % 1019,9 hPa 0,0 l/m 8,3 km/h (2 Bft) S 180 14,0 C 16,9 C
10.05.2012 08:26 17,3 C 83 % 1019,8 hPa 0,0 l/m 7,6 km/h (2 Bft) S-SO 157 14,4 C 17,3 C
10.05.2012 08:31 17,5 C 82 % 1019,7 hPa 0,0 l/m 1,8 km/h (1 Bft) S-SW 202 14,4 C 17,5 C
10.05.2012 08:36 17,7 C 81 % 1019,8 hPa 0,0 l/m 11,9 km/h (2 Bft) S-SO 157 14,4 C 17,7 C
10.05.2012 08:41 17,8 C 81 % 1019,9 hPa 0,0 l/m 5,8 km/h (2 Bft) S 180 14,5 C 17,8 C
10.05.2012 08:46 17,9 C 80 % 1019,9 hPa 0,0 l/m 4,7 km/h (1 Bft) S 180 14,4 C 17,9 C
10.05.2012 08:51 17,9 C 80 % 1019,7 hPa 0,0 l/m 4,3 km/h (1 Bft) S-SO 157 14,4 C 17,9 C
10.05.2012 08:56 18,2 C 80 % 1019,8 hPa 0,0 l/m 11,9 km/h (2 Bft) S-SO 157 14,7 C 18,2 C
10.05.2012 09:01 18,4 C 79 % 1019,8 hPa 0,0 l/m 7,2 km/h (2 Bft) S 180 14,7 C 18,4 C
10.05.2012 09:06 18,6 C 79 % 1019,7 hPa 0,0 l/m 4,0 km/h (1 Bft) W-SW 247 14,9 C 18,6 C
10.05.2012 09:11 18,9 C 78 % 1019,9 hPa 0,0 l/m 3,6 km/h (1 Bft) S-SO 157 15,0 C 18,9 C
10.05.2012 09:16 19,0 C 77 % 1019,9 hPa 0,0 l/m 14,4 km/h (3 Bft) S-SO 157 14,9 C 19,0 C
10.05.2012 09:21 19,2 C 77 % 1019,9 hPa 0,0 l/m 13,0 km/h (3 Bft) S-SO 157 15,1 C 19,2 C
10.05.2012 09:26 19,3 C 76 % 1020,0 hPa 0,0 l/m 2,5 km/h (1 Bft) SO 135 15,0 C 19,3 C
10.05.2012 09:31 19,6 C 75 % 1020,0 hPa 0,0 l/m 9,7 km/h (2 Bft) S 180 15,0 C 19,6 C
10.05.2012 09:36 19,8 C 74 % 1020,0 hPa 0,0 l/m 4,7 km/h (1 Bft) S-SW 202 15,0 C 19,8 C
10.05.2012 09:41 19,9 C 74 % 1020,0 hPa 0,0 l/m 13,3 km/h (3 Bft) SO 135 15,1 C 19,9 C
10.05.2012 09:46 20,3 C 73 % 1019,9 hPa 0,0 l/m 9,4 km/h (2 Bft) SW 225 15,3 C 20,3 C
10.05.2012 09:51 20,5 C 72 % 1020,0 hPa 0,0 l/m 14,4 km/h (3 Bft) SO 135 15,3 C 20,5 C
10.05.2012 09:56 20,6 C 70 % 1019,8 hPa 0,0 l/m 9,0 km/h (2 Bft) S-SO 157 14,9 C 20,6 C
10.05.2012 10:01 20,6 C 70 % 1019,8 hPa 0,0 l/m 10,4 km/h (2 Bft) SO 135 14,9 C 20,6 C
10.05.2012 10:06 20,5 C 70 % 1019,8 hPa 0,0 l/m 6,8 km/h (2 Bft) S 180 14,8 C 20,5 C
10.05.2012 10:11 20,5 C 70 % 1019,8 hPa 0,0 l/m 14,4 km/h (3 Bft) S-SO 157 14,8 C 20,5 C
10.05.2012 10:16 20,5 C 70 % 1019,7 hPa 0,0 l/m 15,5 km/h (3 Bft) S-SW 202 14,8 C 20,5 C
10.05.2012 10:21 20,5 C 70 % 1019,7 hPa 0,0 l/m 3,6 km/h (1 Bft) S-SO 157 14,8 C 20,5 C
10.05.2012 10:26 20,4 C 70 % 1019,6 hPa 0,0 l/m 17,3 km/h (3 Bft) S-SO 157 14,7 C 20,4 C
10.05.2012 10:31 20,5 C 70 % 1019,6 hPa 0,0 l/m 13,7 km/h (3 Bft) S-SW 202 14,8 C 20,5 C
10.05.2012 10:36 20,6 C 70 % 1019,4 hPa 0,0 l/m 11,9 km/h (2 Bft) O-SO 112 14,9 C 20,6 C
10.05.2012 10:41 20,7 C 70 % 1019,5 hPa 0,0 l/m 27,4 km/h (4 Bft) S 180 15,0 C 20,7 C
10.05.2012 10:46 20,8 C 70 % 1019,5 hPa 0,0 l/m 9,4 km/h (2 Bft) S-SO 157 15,1 C 20,8 C
10.05.2012 10:51 20,9 C 70 % 1019,5 hPa 0,0 l/m 4,0 km/h (1 Bft) S-SO 157 15,2 C 20,9 C
10.05.2012 10:56 20,9 C 70 % 1019,4 hPa 0,0 l/m 7,2 km/h (2 Bft) S 180 15,2 C 20,9 C
10.05.2012 11:01 21,1 C 70 % 1019,3 hPa 0,0 l/m 11,9 km/h (2 Bft) S-SO 157 15,4 C 21,1 C
10.05.2012 11:06 21,1 C 70 % 1019,3 hPa 0,0 l/m 10,1 km/h (2 Bft) S-SO 157 15,4 C 21,1 C
10.05.2012 11:11 21,1 C 70 % 1019,3 hPa 0,0 l/m 16,9 km/h (3 Bft) S-SO 157 15,4 C 21,1 C
10.05.2012 11:16 21,3 C 69 % 1019,4 hPa 0,0 l/m 10,4 km/h (2 Bft) S-SO 157 15,4 C 21,3 C
10.05.2012 11:21 21,4 C 69 % 1019,3 hPa 0,0 l/m 17,3 km/h (3 Bft) S-SW 202 15,5 C 21,4 C
10.05.2012 11:26 21,5 C 69 % 1019,3 hPa 0,0 l/m 8,6 km/h (2 Bft) S 180 15,6 C 21,5 C
10.05.2012 11:31 21,6 C 69 % 1019,3 hPa 0,0 l/m 6,1 km/h (2 Bft) S 180 15,7 C 21,6 C
10.05.2012 11:36 21,8 C 68 % 1019,2 hPa 0,0 l/m 8,3 km/h (2 Bft) S-SW 202 15,6 C 21,8 C
10.05.2012 11:41 21,9 C 68 % 1019,2 hPa 0,0 l/m 15,5 km/h (3 Bft) S 180 15,7 C 21,9 C
10.05.2012 11:46 22,1 C 67 % 1019,3 hPa 0,0 l/m 14,4 km/h (3 Bft) S 180 15,7 C 22,1 C
10.05.2012 11:51 22,3 C 66 % 1019,3 hPa 0,0 l/m 12,2 km/h (2 Bft) S 180 15,6 C 22,3 C
10.05.2012 11:56 22,3 C 66 % 1019,3 hPa 0,0 l/m 7,6 km/h (2 Bft) S-SO 157 15,6 C 22,3 C
10.05.2012 12:01 22,4 C 66 % 1019,2 hPa 0,0 l/m 12,2 km/h (2 Bft) S-SW 202 15,7 C 22,4 C
10.05.2012 12:06 22,5 C 65 % 1019,2 hPa 0,0 l/m 8,6 km/h (2 Bft) S-SO 157 15,6 C 22,5 C
10.05.2012 12:11 22,6 C 65 % 1019,2 hPa 0,0 l/m 22,7 km/h (4 Bft) S 180 15,7 C 22,6 C
10.05.2012 12:16 22,8 C 65 % 1019,2 hPa 0,0 l/m 11,9 km/h (2 Bft) S 180 15,9 C 22,8 C
10.05.2012 12:21 22,9 C 65 % 1019,0 hPa 0,0 l/m 11,5 km/h (2 Bft) S 180 16,0 C 22,9 C
10.05.2012 12:26 22,9 C 64 % 1019,0 hPa 0,0 l/m 23,0 km/h (4 Bft) S-SW 202 15,7 C 22,9 C
10.05.2012 12:31 23,1 C 63 % 1019,0 hPa 0,0 l/m 7,9 km/h (2 Bft) S-SO 157 15,7 C 23,1 C
10.05.2012 12:36 23,2 C 64 % 1019,0 hPa 0,0 l/m 21,6 km/h (4 Bft) W 270 16,0 C 23,2 C
10.05.2012 12:41 23,3 C 63 % 1019,0 hPa 0,0 l/m 14,0 km/h (3 Bft) SW 225 15,9 C 23,3 C
10.05.2012 12:46 23,4 C 63 % 1018,9 hPa 0,0 l/m 7,2 km/h (2 Bft) SW 225 15,9 C 23,4 C
10.05.2012 12:51 23,5 C 64 % 1018,9 hPa 0,0 l/m 9,7 km/h (2 Bft) W-SW 247 16,3 C 23,5 C
10.05.2012 12:56 23,6 C 63 % 1018,9 hPa 0,0 l/m 24,1 km/h (4 Bft) S-SW 202 16,1 C 23,6 C
10.05.2012 13:01 23,8 C 62 % 1019,0 hPa 0,0 l/m 13,0 km/h (3 Bft) S 180 16,1 C 23,8 C
10.05.2012 13:06 24,1 C 61 % 1018,9 hPa 0,0 l/m 11,9 km/h (2 Bft) SW 225 16,1 C 24,1 C
10.05.2012 13:11 24,3 C 60 % 1018,9 hPa 0,0 l/m 15,8 km/h (3 Bft) SW 225 16,0 C 24,3 C
10.05.2012 13:16 24,3 C 58 % 1019,0 hPa 0,0 l/m 16,9 km/h (3 Bft) S 180 15,5 C 24,3 C
10.05.2012 13:21 24,2 C 57 % 1019,0 hPa 0,0 l/m 9,4 km/h (2 Bft) W-SW 247 15,1 C 24,2 C
10.05.2012 13:26 24,1 C 56 % 1018,9 hPa 0,0 l/m 8,3 km/h (2 Bft) W-SW 247 14,8 C 24,1 C
10.05.2012 13:31 24,2 C 56 % 1019,0 hPa 0,0 l/m 10,1 km/h (2 Bft) SW 225 14,9 C 24,2 C
10.05.2012 13:36 24,4 C 56 % 1018,8 hPa 0,0 l/m 16,6 km/h (3 Bft) SO 135 15,0 C 24,4 C
10.05.2012 13:41 24,5 C 56 % 1018,8 hPa 0,0 l/m 14,4 km/h (3 Bft) W 270 15,1 C 24,5 C
10.05.2012 13:46 24,6 C 55 % 1018,7 hPa 0,0 l/m 12,2 km/h (2 Bft) S-SO 157 14,9 C 24,6 C
10.05.2012 13:51 24,5 C 54 % 1018,8 hPa 0,0 l/m 26,3 km/h (4 Bft) S-SW 202 14,6 C 24,5 C
10.05.2012 13:56 24,4 C 54 % 1018,8 hPa 0,0 l/m 25,6 km/h (4 Bft) W-SW 247 14,5 C 24,4 C
10.05.2012 14:01 24,4 C 55 % 1018,9 hPa 0,0 l/m 10,8 km/h (2 Bft) W-SW 247 14,8 C 24,4 C
10.05.2012 14:06 24,4 C 56 % 1018,9 hPa 0,0 l/m 16,9 km/h (3 Bft) S-SW 202 15,0 C 24,4 C
10.05.2012 14:11 24,4 C 55 % 1018,8 hPa 0,0 l/m 12,6 km/h (3 Bft) S 180 14,8 C 24,4 C
10.05.2012 14:16 24,3 C 56 % 1018,8 hPa 0,0 l/m 14,8 km/h (3 Bft) S-SO 157 14,9 C 24,3 C
10.05.2012 14:21 24,2 C 55 % 1018,7 hPa 0,0 l/m 14,8 km/h (3 Bft) W 270 14,6 C 24,2 C
10.05.2012 14:26 23,9 C 55 % 1018,9 hPa 0,0 l/m 10,4 km/h (2 Bft) SO 135 14,3 C 23,9 C
10.05.2012 14:31 23,9 C 57 % 1018,8 hPa 0,0 l/m 8,6 km/h (2 Bft) SW 225 14,9 C 23,9 C
10.05.2012 14:36 23,9 C 57 % 1018,8 hPa 0,0 l/m 21,2 km/h (4 Bft) SO 135 14,9 C 23,9 C
10.05.2012 14:41 23,9 C 57 % 1018,8 hPa 0,0 l/m 10,4 km/h (2 Bft) S-SW 202 14,9 C 23,9 C
10.05.2012 14:46 23,9 C 57 % 1018,6 hPa 0,0 l/m 7,2 km/h (2 Bft) S-SW 202 14,9 C 23,9 C
10.05.2012 14:51 23,9 C 57 % 1018,6 hPa 0,0 l/m 15,5 km/h (3 Bft) W-SW 247 14,9 C 23,9 C
10.05.2012 14:56 24,1 C 57 % 1018,7 hPa 0,0 l/m 19,8 km/h (3 Bft) S-SW 202 15,0 C 24,1 C
10.05.2012 15:01 24,1 C 56 % 1018,7 hPa 0,0 l/m 14,0 km/h (3 Bft) S-SW 202 14,8 C 24,1 C
10.05.2012 15:06 24,1 C 57 % 1018,6 hPa 0,0 l/m 13,0 km/h (3 Bft) SW 225 15,0 C 24,1 C
10.05.2012 15:11 24,1 C 56 % 1018,6 hPa 0,0 l/m 26,6 km/h (4 Bft) S-SW 202 14,8 C 24,1 C
10.05.2012 15:16 24,1 C 56 % 1018,5 hPa 0,0 l/m 18,7 km/h (3 Bft) SO 135 14,8 C 24,1 C
10.05.2012 15:21 24,1 C 57 % 1018,6 hPa 0,0 l/m 25,6 km/h (4 Bft) S-SW 202 15,0 C 24,1 C
10.05.2012 15:26 24,1 C 56 % 1018,6 hPa 0,0 l/m 24,1 km/h (4 Bft) SW 225 14,8 C 24,1 C
10.05.2012 15:31 24,1 C 56 % 1018,6 hPa 0,0 l/m 9,7 km/h (2 Bft) W 270 14,8 C 24,1 C
10.05.2012 15:36 24,1 C 55 % 1018,4 hPa 0,0 l/m 14,8 km/h (3 Bft) S 180 14,5 C 24,1 C
10.05.2012 15:41 24,2 C 55 % 1018,5 hPa 0,0 l/m 13,3 km/h (3 Bft) S-SW 202 14,6 C 24,2 C
10.05.2012 15:46 24,3 C 56 % 1018,5 hPa 0,0 l/m 14,8 km/h (3 Bft) S-SO 157 14,9 C 24,3 C
10.05.2012 15:51 24,4 C 56 % 1018,4 hPa 0,0 l/m 5,4 km/h (1 Bft) SW 225 15,0 C 24,4 C
10.05.2012 15:56 24,4 C 57 % 1018,5 hPa 0,0 l/m 9,4 km/h (2 Bft) SW 225 15,3 C 24,4 C
10.05.2012 16:01 24,5 C 56 % 1018,6 hPa 0,0 l/m 17,3 km/h (3 Bft) S-SW 202 15,1 C 24,5 C
10.05.2012 16:06 24,5 C 56 % 1018,4 hPa 0,0 l/m 10,1 km/h (2 Bft) S-SO 157 15,1 C 24,5 C
10.05.2012 16:11 24,4 C 55 % 1018,5 hPa 0,0 l/m 14,8 km/h (3 Bft) S-SO 157 14,8 C 24,4 C
10.05.2012 16:16 24,4 C 55 % 1018,5 hPa 0,0 l/m 16,2 km/h (3 Bft) S-SO 157 14,8 C 24,4 C
10.05.2012 16:21 24,4 C 55 % 1018,3 hPa 0,0 l/m 15,8 km/h (3 Bft) SW 225 14,8 C 24,4 C
10.05.2012 16:26 24,3 C 55 % 1018,3 hPa 0,0 l/m 5,8 km/h (2 Bft) S-SO 157 14,7 C 24,3 C
10.05.2012 16:31 24,4 C 56 % 1018,2 hPa 0,0 l/m 5,0 km/h (1 Bft) S-SW 202 15,0 C 24,4 C
10.05.2012 16:36 24,3 C 56 % 1018,1 hPa 0,0 l/m 19,1 km/h (3 Bft) S-SW 202 14,9 C 24,3 C
10.05.2012 16:41 24,4 C 56 % 1018,2 hPa 0,0 l/m 8,6 km/h (2 Bft) W-SW 247 15,0 C 24,4 C
10.05.2012 16:46 24,4 C 56 % 1018,2 hPa 0,0 l/m 16,9 km/h (3 Bft) SW 225 15,0 C 24,4 C
10.05.2012 16:51 24,4 C 56 % 1018,1 hPa 0,0 l/m 9,0 km/h (2 Bft) S 180 15,0 C 24,4 C
10.05.2012 16:56 24,4 C 56 % 1018,1 hPa 0,0 l/m 7,2 km/h (2 Bft) S-SW 202 15,0 C 24,4 C
10.05.2012 17:01 24,3 C 55 % 1018,0 hPa 0,0 l/m 15,5 km/h (3 Bft) S-SW 202 14,7 C 24,3 C
10.05.2012 17:06 24,2 C 55 % 1018,2 hPa 0,0 l/m 13,0 km/h (3 Bft) SW 225 14,6 C 24,2 C
10.05.2012 17:11 24,1 C 55 % 1018,1 hPa 0,0 l/m 7,6 km/h (2 Bft) S 180 14,5 C 24,1 C
10.05.2012 17:16 24,1 C 56 % 1018,2 hPa 0,0 l/m 12,6 km/h (3 Bft) S-SW 202 14,8 C 24,1 C
10.05.2012 17:21 24,0 C 56 % 1018,1 hPa 0,0 l/m 6,5 km/h (2 Bft) S 180 14,7 C 24,0 C
10.05.2012 17:26 23,9 C 57 % 1018,3 hPa 0,0 l/m 4,0 km/h (1 Bft) SW 225 14,9 C 23,9 C
10.05.2012 17:31 23,8 C 58 % 1018,2 hPa 0,0 l/m 7,9 km/h (2 Bft) S 180 15,0 C 23,8 C
10.05.2012 17:36 23,8 C 58 % 1018,1 hPa 0,0 l/m 10,4 km/h (2 Bft) S-SO 157 15,0 C 23,8 C
10.05.2012 17:41 23,6 C 58 % 1018,0 hPa 0,0 l/m 6,5 km/h (2 Bft) SO 135 14,8 C 23,6 C
10.05.2012 17:46 23,6 C 58 % 1017,9 hPa 0,0 l/m 11,9 km/h (2 Bft) S-SW 202 14,8 C 23,6 C
10.05.2012 17:51 23,6 C 59 % 1017,9 hPa 0,0 l/m 15,8 km/h (3 Bft) S-SW 202 15,1 C 23,6 C
10.05.2012 17:56 23,6 C 59 % 1017,9 hPa 0,0 l/m 6,1 km/h (2 Bft) S-SW 202 15,1 C 23,6 C
10.05.2012 18:01 23,5 C 60 % 1017,7 hPa 0,0 l/m 13,3 km/h (3 Bft) S-SO 157 15,3 C 23,5 C
10.05.2012 18:06 23,4 C 61 % 1017,8 hPa 0,0 l/m 9,7 km/h (2 Bft) SW 225 15,4 C 23,4 C
10.05.2012 18:11 23,3 C 61 % 1017,8 hPa 0,0 l/m 15,1 km/h (3 Bft) S-SO 157 15,3 C 23,3 C
10.05.2012 18:16 23,2 C 62 % 1017,6 hPa 0,0 l/m 8,6 km/h (2 Bft) S 180 15,5 C 23,2 C
10.05.2012 18:21 23,1 C 63 % 1017,5 hPa 0,0 l/m 6,1 km/h (2 Bft) SO 135 15,7 C 23,1 C
10.05.2012 18:26 23,0 C 63 % 1017,6 hPa 0,0 l/m 6,8 km/h (2 Bft) S-SO 157 15,6 C 23,0 C
10.05.2012 18:31 23,1 C 63 % 1017,7 hPa 0,0 l/m 19,1 km/h (3 Bft) S-SW 202 15,7 C 23,1 C
10.05.2012 18:36 22,9 C 63 % 1017,8 hPa 0,0 l/m 11,5 km/h (2 Bft) S-SO 157 15,5 C 22,9 C
10.05.2012 18:41 22,9 C 64 % 1017,7 hPa 0,0 l/m 22,0 km/h (4 Bft) S-SO 157 15,7 C 22,9 C
10.05.2012 18:46 22,9 C 64 % 1017,7 hPa 0,0 l/m 18,4 km/h (3 Bft) S-SO 157 15,7 C 22,9 C
10.05.2012 18:51 22,9 C 64 % 1017,6 hPa 0,0 l/m 16,9 km/h (3 Bft) S 180 15,7 C 22,9 C
10.05.2012 18:56 22,9 C 64 % 1017,5 hPa 0,0 l/m 10,8 km/h (2 Bft) S-SO 157 15,7 C 22,9 C
10.05.2012 19:01 22,8 C 64 % 1017,4 hPa 0,0 l/m 9,0 km/h (2 Bft) S-SW 202 15,6 C 22,8 C
10.05.2012 19:06 22,8 C 64 % 1017,5 hPa 0,0 l/m 6,5 km/h (2 Bft) SO 135 15,6 C 22,8 C
10.05.2012 19:11 22,8 C 64 % 1017,5 hPa 0,0 l/m 7,9 km/h (2 Bft) SO 135 15,6 C 22,8 C
10.05.2012 19:16 22,8 C 64 % 1017,6 hPa 0,0 l/m 16,6 km/h (3 Bft) S 180 15,6 C 22,8 C
10.05.2012 19:21 22,8 C 64 % 1017,5 hPa 0,0 l/m 17,6 km/h (3 Bft) S-SO 157 15,6 C 22,8 C
10.05.2012 19:26 22,8 C 64 % 1017,5 hPa 0,0 l/m 13,0 km/h (3 Bft) S-SW 202 15,6 C 22,8 C
10.05.2012 19:31 22,8 C 64 % 1017,5 hPa 0,0 l/m 10,4 km/h (2 Bft) S-SO 157 15,6 C 22,8 C
10.05.2012 19:36 22,7 C 64 % 1017,4 hPa 0,0 l/m 13,7 km/h (3 Bft) S-SW 202 15,5 C 22,7 C
10.05.2012 19:41 22,6 C 64 % 1017,3 hPa 0,0 l/m 17,6 km/h (3 Bft) S 180 15,4 C 22,6 C
10.05.2012 19:46 22,6 C 64 % 1017,2 hPa 0,0 l/m 15,8 km/h (3 Bft) S 180 15,4 C 22,6 C
10.05.2012 19:51 22,6 C 64 % 1017,3 hPa 0,0 l/m 9,7 km/h (2 Bft) O-SO 112 15,4 C 22,6 C
10.05.2012 19:56 22,5 C 65 % 1017,4 hPa 0,0 l/m 7,6 km/h (2 Bft) S 180 15,6 C 22,5 C
10.05.2012 20:01 22,5 C 65 % 1017,3 hPa 0,0 l/m 6,1 km/h (2 Bft) S-SW 202 15,6 C 22,5 C
10.05.2012 20:06 22,4 C 65 % 1017,3 hPa 0,0 l/m 11,5 km/h (2 Bft) S 180 15,5 C 22,4 C
10.05.2012 20:11 22,4 C 65 % 1017,3 hPa 0,0 l/m 7,6 km/h (2 Bft) S-SW 202 15,5 C 22,4 C
10.05.2012 20:16 22,3 C 65 % 1017,3 hPa 0,0 l/m 5,8 km/h (2 Bft) SO 135 15,4 C 22,3 C
10.05.2012 20:21 22,3 C 65 % 1017,2 hPa 0,0 l/m 8,3 km/h (2 Bft) S-SO 157 15,4 C 22,3 C
10.05.2012 20:26 22,2 C 65 % 1017,2 hPa 0,0 l/m 8,3 km/h (2 Bft) S 180 15,3 C 22,2 C
10.05.2012 20:31 22,1 C 65 % 1017,2 hPa 0,0 l/m 20,5 km/h (4 Bft) S 180 15,2 C 22,1 C
10.05.2012 20:36 22,1 C 66 % 1017,0 hPa 0,0 l/m 16,9 km/h (3 Bft) S 180 15,4 C 22,1 C
10.05.2012 20:41 22,0 C 66 % 1017,1 hPa 0,0 l/m 14,0 km/h (3 Bft) S 180 15,3 C 22,0 C
10.05.2012 20:46 21,9 C 66 % 1017,1 hPa 0,0 l/m 16,6 km/h (3 Bft) S-SW 202 15,3 C 21,9 C
10.05.2012 20:51 21,9 C 66 % 1017,4 hPa 0,0 l/m 6,8 km/h (2 Bft) S-SW 202 15,3 C 21,9 C
10.05.2012 20:56 21,8 C 67 % 1017,3 hPa 0,0 l/m 13,7 km/h (3 Bft) S-SO 157 15,4 C 21,8 C
10.05.2012 21:01 21,8 C 67 % 1017,3 hPa 0,0 l/m 10,4 km/h (2 Bft) S-SW 202 15,4 C 21,8 C
10.05.2012 21:06 21,8 C 67 % 1017,4 hPa 0,0 l/m 7,2 km/h (2 Bft) SW 225 15,4 C 21,8 C
10.05.2012 21:11 21,8 C 67 % 1017,4 hPa 0,0 l/m 5,0 km/h (1 Bft) S 180 15,4 C 21,8 C
10.05.2012 21:16 21,8 C 67 % 1017,4 hPa 0,0 l/m 8,3 km/h (2 Bft) SO 135 15,4 C 21,8 C
10.05.2012 21:21 21,7 C 67 % 1017,4 hPa 0,0 l/m 10,1 km/h (2 Bft) S 180 15,3 C 21,7 C
10.05.2012 21:26 21,6 C 67 % 1017,3 hPa 0,0 l/m 7,6 km/h (2 Bft) S-SO 157 15,2 C 21,6 C
10.05.2012 21:31 21,6 C 67 % 1017,5 hPa 0,0 l/m 14,4 km/h (3 Bft) S 180 15,2 C 21,6 C
10.05.2012 21:36 21,6 C 67 % 1017,5 hPa 0,0 l/m 16,9 km/h (3 Bft) S-SO 157 15,2 C 21,6 C
10.05.2012 21:41 21,6 C 67 % 1017,5 hPa 0,0 l/m 10,8 km/h (2 Bft) S 180 15,2 C 21,6 C
10.05.2012 21:46 21,6 C 68 % 1017,6 hPa 0,0 l/m 7,6 km/h (2 Bft) S-SO 157 15,4 C 21,6 C
10.05.2012 21:51 21,6 C 68 % 1017,5 hPa 0,0 l/m 16,9 km/h (3 Bft) S-SO 157 15,4 C 21,6 C
10.05.2012 21:56 21,5 C 68 % 1017,5 hPa 0,0 l/m 18,7 km/h (3 Bft) S-SO 157 15,3 C 21,5 C
10.05.2012 22:01 21,4 C 68 % 1017,5 hPa 0,0 l/m 13,3 km/h (3 Bft) SO 135 15,2 C 21,4 C
10.05.2012 22:06 21,4 C 68 % 1017,4 hPa 0,0 l/m 13,3 km/h (3 Bft) S-SW 202 15,2 C 21,4 C
10.05.2012 22:11 21,4 C 68 % 1017,3 hPa 0,0 l/m 11,2 km/h (2 Bft) S-SW 202 15,2 C 21,4 C
10.05.2012 22:16 21,4 C 68 % 1017,4 hPa 0,0 l/m 13,7 km/h (3 Bft) SW 225 15,2 C 21,4 C
10.05.2012 22:21 21,4 C 69 % 1017,2 hPa 0,0 l/m 7,6 km/h (2 Bft) SO 135 15,5 C 21,4 C
10.05.2012 22:26 21,4 C 69 % 1017,3 hPa 0,0 l/m 11,2 km/h (2 Bft) S-SW 202 15,5 C 21,4 C
10.05.2012 22:31 21,4 C 68 % 1017,1 hPa 0,0 l/m 18,7 km/h (3 Bft) S-SO 157 15,2 C 21,4 C
10.05.2012 22:36 21,4 C 69 % 1017,2 hPa 0,0 l/m 11,5 km/h (2 Bft) SO 135 15,5 C 21,4 C
10.05.2012 22:41 21,4 C 68 % 1017,1 hPa 0,0 l/m 8,6 km/h (2 Bft) S 180 15,2 C 21,4 C
10.05.2012 22:46 21,3 C 68 % 1016,8 hPa 0,0 l/m 11,2 km/h (2 Bft) SO 135 15,1 C 21,3 C
10.05.2012 22:51 21,3 C 69 % 1016,8 hPa 0,0 l/m 10,8 km/h (2 Bft) SW 225 15,4 C 21,3 C
10.05.2012 22:56 21,3 C 69 % 1016,8 hPa 0,0 l/m 5,0 km/h (1 Bft) S 180 15,4 C 21,3 C
10.05.2012 23:01 21,2 C 69 % 1016,7 hPa 0,0 l/m 9,7 km/h (2 Bft) S-SW 202 15,3 C 21,2 C
10.05.2012 23:06 21,2 C 69 % 1016,8 hPa 0,0 l/m 5,4 km/h (1 Bft) S-SO 157 15,3 C 21,2 C
10.05.2012 23:11 21,1 C 69 % 1016,8 hPa 0,0 l/m 7,9 km/h (2 Bft) S 180 15,2 C 21,1 C
10.05.2012 23:16 21,1 C 69 % 1016,8 hPa 0,0 l/m 4,0 km/h (1 Bft) S 180 15,2 C 21,1 C
10.05.2012 23:21 21,1 C 69 % 1016,8 hPa 0,0 l/m 5,0 km/h (1 Bft) S-SO 157 15,2 C 21,1 C
10.05.2012 23:26 21,0 C 69 % 1016,8 hPa 0,0 l/m 7,9 km/h (2 Bft) S-SO 157 15,1 C 21,0 C
10.05.2012 23:31 21,0 C 69 % 1016,8 hPa 0,0 l/m 9,4 km/h (2 Bft) S-SW 202 15,1 C 21,0 C
10.05.2012 23:36 21,0 C 70 % 1016,9 hPa 0,0 l/m 17,3 km/h (3 Bft) S-SW 202 15,3 C 21,0 C
10.05.2012 23:41 20,9 C 70 % 1016,9 hPa 0,0 l/m 16,6 km/h (3 Bft) S-SO 157 15,2 C 20,9 C
10.05.2012 23:46 21,0 C 70 % 1016,9 hPa 0,0 l/m 8,6 km/h (2 Bft) S-SO 157 15,3 C 21,0 C
10.05.2012 23:51 21,0 C 69 % 1017,0 hPa 0,0 l/m 16,9 km/h (3 Bft) S-SO 157 15,1 C 21,0 C
10.05.2012 23:56 21,0 C 69 % 1016,9 hPa 0,0 l/m 23,4 km/h (4 Bft) S-SW 202 15,1 C 21,0 C
_ Min-Zeit 06:06 13:51 23:01 - 00:01 - - 05:46 06:06
Minimum _ 13,7 C 54 % 1016,7 hPa - 0,0 km/h (0 Bft) - - 11,3 C 13,7 C
_ Max-Zeit 13:46 06:16 08:01 00:01 10:41 - - 12:51 13:46
Maximum _ 24,6 C 88 % 1020,0 hPa 0,0 l/m 27,4 km/h
S (4 Bft)
- - 16,3 C 24,6 C
Durchschnitt _ 19,8 C 71 % 1018,5 hPa #0,0 l/m 9,1 km/h (2 Bft) S-SO - 14,2 C 19,8 C
(c) by David Heller